sensor_id;sensor_type;location;lat;lon;timestamp;temperature;humidity
39815;DHT22;25495;45.948;4.568;2022-12-07T00:01:17;2.40;99.90
39815;DHT22;25495;45.948;4.568;2022-12-07T00:03:44;2.40;99.90
39815;DHT22;25495;45.948;4.568;2022-12-07T00:06:12;2.40;99.90
39815;DHT22;25495;45.948;4.568;2022-12-07T00:08:38;2.30;99.90
39815;DHT22;25495;45.948;4.568;2022-12-07T00:11:14;2.30;99.90
39815;DHT22;25495;45.948;4.568;2022-12-07T00:13:41;2.30;99.90
39815;DHT22;25495;45.948;4.568;2022-12-07T00:16:12;2.40;99.90
39815;DHT22;25495;45.948;4.568;2022-12-07T00:18:38;2.40;99.90
39815;DHT22;25495;45.948;4.568;2022-12-07T00:21:07;2.20;99.90
39815;DHT22;25495;45.948;4.568;2022-12-07T00:23:33;2.20;99.90
39815;DHT22;25495;45.948;4.568;2022-12-07T00:26:06;2.20;99.90
39815;DHT22;25495;45.948;4.568;2022-12-07T00:28:33;2.20;99.90
39815;DHT22;25495;45.948;4.568;2022-12-07T00:31:10;2.20;99.90
39815;DHT22;25495;45.948;4.568;2022-12-07T00:33:36;2.20;99.90
39815;DHT22;25495;45.948;4.568;2022-12-07T00:36:07;2.30;99.90
39815;DHT22;25495;45.948;4.568;2022-12-07T00:38:34;2.40;99.90
39815;DHT22;25495;45.948;4.568;2022-12-07T00:41:03;2.30;99.90
39815;DHT22;25495;45.948;4.568;2022-12-07T00:43:30;2.40;99.90
39815;DHT22;25495;45.948;4.568;2022-12-07T00:45:56;2.30;99.90
39815;DHT22;25495;45.948;4.568;2022-12-07T00:48:23;2.30;99.90
39815;DHT22;25495;45.948;4.568;2022-12-07T00:50:48;2.30;99.90
39815;DHT22;25495;45.948;4.568;2022-12-07T00:53:15;2.40;99.90
39815;DHT22;25495;45.948;4.568;2022-12-07T00:55:41;2.40;99.90
39815;DHT22;25495;45.948;4.568;2022-12-07T00:58:07;2.40;99.90
39815;DHT22;25495;45.948;4.568;2022-12-07T01:00:36;2.30;99.90
39815;DHT22;25495;45.948;4.568;2022-12-07T01:03:02;2.20;99.90
39815;DHT22;25495;45.948;4.568;2022-12-07T01:05:28;2.20;99.90
39815;DHT22;25495;45.948;4.568;2022-12-07T01:07:54;2.20;99.90
39815;DHT22;25495;45.948;4.568;2022-12-07T01:10:20;2.30;99.90
39815;DHT22;25495;45.948;4.568;2022-12-07T01:12:46;2.30;99.90
39815;DHT22;25495;45.948;4.568;2022-12-07T01:15:12;2.30;99.90
39815;DHT22;25495;45.948;4.568;2022-12-07T01:17:37;2.30;99.90
39815;DHT22;25495;45.948;4.568;2022-12-07T01:20:04;2.30;99.90
39815;DHT22;25495;45.948;4.568;2022-12-07T01:22:30;2.40;99.90
39815;DHT22;25495;45.948;4.568;2022-12-07T01:24:55;2.40;99.90
39815;DHT22;25495;45.948;4.568;2022-12-07T01:27:21;2.40;99.90
39815;DHT22;25495;45.948;4.568;2022-12-07T01:29:47;2.40;99.90
39815;DHT22;25495;45.948;4.568;2022-12-07T01:32:12;2.40;99.90
39815;DHT22;25495;45.948;4.568;2022-12-07T01:34:38;2.30;99.90
39815;DHT22;25495;45.948;4.568;2022-12-07T01:37:04;2.30;99.90
39815;DHT22;25495;45.948;4.568;2022-12-07T01:39:30;2.30;99.90
39815;DHT22;25495;45.948;4.568;2022-12-07T01:41:55;2.30;99.90
39815;DHT22;25495;45.948;4.568;2022-12-07T01:44:29;2.30;99.90
39815;DHT22;25495;45.948;4.568;2022-12-07T01:47:04;2.20;99.90
39815;DHT22;25495;45.948;4.568;2022-12-07T01:49:40;2.30;99.90
39815;DHT22;25495;45.948;4.568;2022-12-07T01:52:15;2.30;99.90
39815;DHT22;25495;45.948;4.568;2022-12-07T01:54:43;2.20;99.90
39815;DHT22;25495;45.948;4.568;2022-12-07T01:57:10;2.30;99.90
39815;DHT22;25495;45.948;4.568;2022-12-07T01:59:37;2.20;99.90
39815;DHT22;25495;45.948;4.568;2022-12-07T02:02:10;2.10;99.90
39815;DHT22;25495;45.948;4.568;2022-12-07T02:04:37;2.20;99.90
39815;DHT22;25495;45.948;4.568;2022-12-07T02:07:05;2.20;99.90
39815;DHT22;25495;45.948;4.568;2022-12-07T02:09:31;2.20;99.90
39815;DHT22;25495;45.948;4.568;2022-12-07T02:11:57;2.20;99.90
39815;DHT22;25495;45.948;4.568;2022-12-07T02:14:23;2.20;99.90
39815;DHT22;25495;45.948;4.568;2022-12-07T02:17:12;2.10;99.90
39815;DHT22;25495;45.948;4.568;2022-12-07T02:25:20;2.00;99.90
39815;DHT22;25495;45.948;4.568;2022-12-07T02:27:59;2.10;99.90
39815;DHT22;25495;45.948;4.568;2022-12-07T02:30:35;2.10;99.90
39815;DHT22;25495;45.948;4.568;2022-12-07T02:33:13;2.00;99.90
39815;DHT22;25495;45.948;4.568;2022-12-07T02:36:07;2.00;99.90
39815;DHT22;25495;45.948;4.568;2022-12-07T02:41:20;1.90;99.90
39815;DHT22;25495;45.948;4.568;2022-12-07T02:44:02;1.90;99.90
39815;DHT22;25495;45.948;4.568;2022-12-07T02:46:42;1.90;99.90
39815;DHT22;25495;45.948;4.568;2022-12-07T02:49:08;1.90;99.90
39815;DHT22;25495;45.948;4.568;2022-12-07T02:51:39;1.90;99.90
39815;DHT22;25495;45.948;4.568;2022-12-07T02:54:17;1.90;99.90
39815;DHT22;25495;45.948;4.568;2022-12-07T03:13:56;1.70;99.90
39815;DHT22;25495;45.948;4.568;2022-12-07T03:16:28;1.70;99.90
39815;DHT22;25495;45.948;4.568;2022-12-07T03:19:06;1.70;99.90
39815;DHT22;25495;45.948;4.568;2022-12-07T03:21:43;1.70;99.90
39815;DHT22;25495;45.948;4.568;2022-12-07T03:24:17;1.70;99.90
39815;DHT22;25495;45.948;4.568;2022-12-07T03:26:51;1.70;99.90
39815;DHT22;25495;45.948;4.568;2022-12-07T03:29:28;1.70;99.90
39815;DHT22;25495;45.948;4.568;2022-12-07T03:32:08;1.70;99.90
39815;DHT22;25495;45.948;4.568;2022-12-07T03:35:05;1.70;99.90
39815;DHT22;25495;45.948;4.568;2022-12-07T03:37:39;1.70;99.90
39815;DHT22;25495;45.948;4.568;2022-12-07T03:40:30;1.60;99.90
39815;DHT22;25495;45.948;4.568;2022-12-07T03:42:59;1.60;99.90
39815;DHT22;25495;45.948;4.568;2022-12-07T03:45:36;1.50;99.90
39815;DHT22;25495;45.948;4.568;2022-12-07T03:51:25;1.50;99.90
39815;DHT22;25495;45.948;4.568;2022-12-07T03:53:58;1.50;99.90
39815;DHT22;25495;45.948;4.568;2022-12-07T03:56:26;1.50;99.90
39815;DHT22;25495;45.948;4.568;2022-12-07T03:58:54;1.50;99.90
39815;DHT22;25495;45.948;4.568;2022-12-07T04:01:20;1.50;99.90
39815;DHT22;25495;45.948;4.568;2022-12-07T04:03:46;1.50;99.90
39815;DHT22;25495;45.948;4.568;2022-12-07T04:06:11;1.50;99.90
39815;DHT22;25495;45.948;4.568;2022-12-07T04:08:37;1.50;99.90
39815;DHT22;25495;45.948;4.568;2022-12-07T04:11:03;1.60;99.90
39815;DHT22;25495;45.948;4.568;2022-12-07T04:13:29;1.60;99.90
39815;DHT22;25495;45.948;4.568;2022-12-07T04:15:54;1.60;99.90
39815;DHT22;25495;45.948;4.568;2022-12-07T04:18:20;1.60;99.90
39815;DHT22;25495;45.948;4.568;2022-12-07T04:20:46;1.50;99.90
39815;DHT22;25495;45.948;4.568;2022-12-07T04:23:12;1.50;99.90
39815;DHT22;25495;45.948;4.568;2022-12-07T04:25:38;1.50;99.90
39815;DHT22;25495;45.948;4.568;2022-12-07T04:28:03;1.50;99.90
39815;DHT22;25495;45.948;4.568;2022-12-07T04:30:29;1.50;99.90
39815;DHT22;25495;45.948;4.568;2022-12-07T04:32:55;1.50;99.90
39815;DHT22;25495;45.948;4.568;2022-12-07T04:35:21;1.50;99.90
39815;DHT22;25495;45.948;4.568;2022-12-07T04:37:47;1.50;99.90
39815;DHT22;25495;45.948;4.568;2022-12-07T04:40:13;1.50;99.90
39815;DHT22;25495;45.948;4.568;2022-12-07T04:42:40;1.50;99.90
39815;DHT22;25495;45.948;4.568;2022-12-07T04:45:06;1.60;99.90
39815;DHT22;25495;45.948;4.568;2022-12-07T04:47:32;1.60;99.90
39815;DHT22;25495;45.948;4.568;2022-12-07T04:49:57;1.50;99.90
39815;DHT22;25495;45.948;4.568;2022-12-07T04:52:23;1.60;99.90
39815;DHT22;25495;45.948;4.568;2022-12-07T04:54:49;1.60;99.90
39815;DHT22;25495;45.948;4.568;2022-12-07T04:57:15;1.70;99.90
39815;DHT22;25495;45.948;4.568;2022-12-07T04:59:40;1.70;99.90
39815;DHT22;25495;45.948;4.568;2022-12-07T05:02:06;1.80;99.90
39815;DHT22;25495;45.948;4.568;2022-12-07T05:04:32;1.80;99.90
39815;DHT22;25495;45.948;4.568;2022-12-07T05:06:57;1.90;99.90
39815;DHT22;25495;45.948;4.568;2022-12-07T05:09:23;1.80;99.90
39815;DHT22;25495;45.948;4.568;2022-12-07T05:11:49;1.70;99.90
39815;DHT22;25495;45.948;4.568;2022-12-07T05:14:20;1.70;99.90
39815;DHT22;25495;45.948;4.568;2022-12-07T05:16:48;1.70;99.90
39815;DHT22;25495;45.948;4.568;2022-12-07T05:19:15;1.80;99.90
39815;DHT22;25495;45.948;4.568;2022-12-07T05:21:41;1.80;99.90
39815;DHT22;25495;45.948;4.568;2022-12-07T05:24:08;1.70;99.90
39815;DHT22;25495;45.948;4.568;2022-12-07T05:26:35;1.70;99.90
39815;DHT22;25495;45.948;4.568;2022-12-07T05:29:01;1.70;99.90
39815;DHT22;25495;45.948;4.568;2022-12-07T05:31:27;1.70;99.90
39815;DHT22;25495;45.948;4.568;2022-12-07T05:33:53;1.80;99.90
39815;DHT22;25495;45.948;4.568;2022-12-07T05:36:20;1.80;99.90
39815;DHT22;25495;45.948;4.568;2022-12-07T05:38:45;1.70;99.90
39815;DHT22;25495;45.948;4.568;2022-12-07T05:41:14;1.80;99.90
39815;DHT22;25495;45.948;4.568;2022-12-07T05:44:00;1.70;99.90
39815;DHT22;25495;45.948;4.568;2022-12-07T05:46:26;1.90;99.90
39815;DHT22;25495;45.948;4.568;2022-12-07T05:48:52;1.90;99.90
39815;DHT22;25495;45.948;4.568;2022-12-07T05:51:18;1.90;99.90
39815;DHT22;25495;45.948;4.568;2022-12-07T05:53:44;2.00;99.90
39815;DHT22;25495;45.948;4.568;2022-12-07T05:56:10;1.90;99.90
39815;DHT22;25495;45.948;4.568;2022-12-07T05:58:36;1.90;99.90
39815;DHT22;25495;45.948;4.568;2022-12-07T06:01:20;1.90;99.90
39815;DHT22;25495;45.948;4.568;2022-12-07T06:03:46;1.90;99.90
39815;DHT22;25495;45.948;4.568;2022-12-07T06:06:11;1.90;99.90
39815;DHT22;25495;45.948;4.568;2022-12-07T06:08:37;2.00;99.90
39815;DHT22;25495;45.948;4.568;2022-12-07T06:11:03;1.90;99.90
39815;DHT22;25495;45.948;4.568;2022-12-07T06:13:47;1.80;99.90
39815;DHT22;25495;45.948;4.568;2022-12-07T06:16:13;1.80;99.90
39815;DHT22;25495;45.948;4.568;2022-12-07T06:18:38;1.80;99.90
39815;DHT22;25495;45.948;4.568;2022-12-07T06:21:04;1.80;99.90
39815;DHT22;25495;45.948;4.568;2022-12-07T06:23:30;1.80;99.90
39815;DHT22;25495;45.948;4.568;2022-12-07T06:25:56;1.80;99.90
39815;DHT22;25495;45.948;4.568;2022-12-07T06:28:21;1.90;99.90
39815;DHT22;25495;45.948;4.568;2022-12-07T06:30:47;2.00;99.90
39815;DHT22;25495;45.948;4.568;2022-12-07T06:33:13;1.90;99.90
39815;DHT22;25495;45.948;4.568;2022-12-07T06:35:38;1.90;99.90
39815;DHT22;25495;45.948;4.568;2022-12-07T06:38:04;1.80;99.90
39815;DHT22;25495;45.948;4.568;2022-12-07T06:40:30;1.80;99.90
39815;DHT22;25495;45.948;4.568;2022-12-07T06:42:55;1.90;99.90
39815;DHT22;25495;45.948;4.568;2022-12-07T06:45:21;2.00;99.90
39815;DHT22;25495;45.948;4.568;2022-12-07T06:47:47;1.90;99.90
39815;DHT22;25495;45.948;4.568;2022-12-07T06:50:13;1.90;99.90
39815;DHT22;25495;45.948;4.568;2022-12-07T06:52:38;1.80;99.90
39815;DHT22;25495;45.948;4.568;2022-12-07T06:55:04;1.70;99.90
39815;DHT22;25495;45.948;4.568;2022-12-07T06:57:30;1.70;99.90
39815;DHT22;25495;45.948;4.568;2022-12-07T06:59:56;1.80;99.90
39815;DHT22;25495;45.948;4.568;2022-12-07T07:02:22;1.80;99.90
39815;DHT22;25495;45.948;4.568;2022-12-07T07:04:47;1.80;99.90
39815;DHT22;25495;45.948;4.568;2022-12-07T07:07:13;1.70;99.90
39815;DHT22;25495;45.948;4.568;2022-12-07T07:09:39;1.70;99.90
39815;DHT22;25495;45.948;4.568;2022-12-07T07:12:04;1.60;99.90
39815;DHT22;25495;45.948;4.568;2022-12-07T07:14:30;1.60;99.90
39815;DHT22;25495;45.948;4.568;2022-12-07T07:16:56;1.60;99.90
39815;DHT22;25495;45.948;4.568;2022-12-07T07:19:22;1.70;99.90
39815;DHT22;25495;45.948;4.568;2022-12-07T07:21:47;2.00;99.90
39815;DHT22;25495;45.948;4.568;2022-12-07T07:24:13;1.90;99.90
39815;DHT22;25495;45.948;4.568;2022-12-07T07:26:39;1.80;99.90
39815;DHT22;25495;45.948;4.568;2022-12-07T07:29:04;1.90;99.90
39815;DHT22;25495;45.948;4.568;2022-12-07T07:31:30;1.90;99.90
39815;DHT22;25495;45.948;4.568;2022-12-07T07:33:56;1.90;99.90
39815;DHT22;25495;45.948;4.568;2022-12-07T07:36:22;1.90;99.90
39815;DHT22;25495;45.948;4.568;2022-12-07T07:38:47;1.90;99.90
39815;DHT22;25495;45.948;4.568;2022-12-07T07:41:13;1.90;99.90
39815;DHT22;25495;45.948;4.568;2022-12-07T07:43:39;2.00;99.90
39815;DHT22;25495;45.948;4.568;2022-12-07T07:46:04;2.00;99.90
39815;DHT22;25495;45.948;4.568;2022-12-07T07:48:30;2.10;99.90
39815;DHT22;25495;45.948;4.568;2022-12-07T07:50:56;2.10;99.90
39815;DHT22;25495;45.948;4.568;2022-12-07T07:53:22;2.00;99.90
39815;DHT22;25495;45.948;4.568;2022-12-07T07:55:54;2.10;99.90
39815;DHT22;25495;45.948;4.568;2022-12-07T07:58:20;2.10;99.90
39815;DHT22;25495;45.948;4.568;2022-12-07T08:00:46;2.10;99.90
39815;DHT22;25495;45.948;4.568;2022-12-07T08:03:12;2.00;99.90
39815;DHT22;25495;45.948;4.568;2022-12-07T08:05:38;2.00;99.90
39815;DHT22;25495;45.948;4.568;2022-12-07T08:08:04;2.00;99.90
39815;DHT22;25495;45.948;4.568;2022-12-07T08:10:30;2.00;99.90
39815;DHT22;25495;45.948;4.568;2022-12-07T08:12:58;2.10;99.90
39815;DHT22;25495;45.948;4.568;2022-12-07T08:15:46;2.10;99.90
39815;DHT22;25495;45.948;4.568;2022-12-07T08:18:13;2.10;99.90
39815;DHT22;25495;45.948;4.568;2022-12-07T08:20:40;2.40;99.90
39815;DHT22;25495;45.948;4.568;2022-12-07T08:23:07;2.20;99.90
39815;DHT22;25495;45.948;4.568;2022-12-07T08:25:33;2.10;99.90
39815;DHT22;25495;45.948;4.568;2022-12-07T08:27:59;2.00;99.90
39815;DHT22;25495;45.948;4.568;2022-12-07T08:30:27;2.00;99.90
39815;DHT22;25495;45.948;4.568;2022-12-07T08:32:53;2.00;99.90
39815;DHT22;25495;45.948;4.568;2022-12-07T08:35:18;2.00;99.90
39815;DHT22;25495;45.948;4.568;2022-12-07T08:37:44;2.10;99.90
39815;DHT22;25495;45.948;4.568;2022-12-07T08:40:12;2.10;99.90
39815;DHT22;25495;45.948;4.568;2022-12-07T08:42:52;2.10;99.90
39815;DHT22;25495;45.948;4.568;2022-12-07T08:45:20;2.10;99.90
39815;DHT22;25495;45.948;4.568;2022-12-07T08:48:02;2.10;99.90
39815;DHT22;25495;45.948;4.568;2022-12-07T08:50:29;2.10;99.90
39815;DHT22;25495;45.948;4.568;2022-12-07T08:52:57;2.10;99.90
39815;DHT22;25495;45.948;4.568;2022-12-07T08:55:24;2.10;99.90
39815;DHT22;25495;45.948;4.568;2022-12-07T08:57:50;2.10;99.90
39815;DHT22;25495;45.948;4.568;2022-12-07T09:00:17;2.10;99.90
39815;DHT22;25495;45.948;4.568;2022-12-07T09:02:43;2.10;99.90
39815;DHT22;25495;45.948;4.568;2022-12-07T09:05:10;2.10;99.90
39815;DHT22;25495;45.948;4.568;2022-12-07T09:07:36;2.10;99.90
39815;DHT22;25495;45.948;4.568;2022-12-07T09:10:03;2.40;99.90
39815;DHT22;25495;45.948;4.568;2022-12-07T09:12:29;2.60;99.90
39815;DHT22;25495;45.948;4.568;2022-12-07T09:14:55;3.00;99.90
39815;DHT22;25495;45.948;4.568;2022-12-07T09:17:21;3.10;99.90
39815;DHT22;25495;45.948;4.568;2022-12-07T09:19:47;2.50;99.90
39815;DHT22;25495;45.948;4.568;2022-12-07T09:22:13;2.40;99.90
39815;DHT22;25495;45.948;4.568;2022-12-07T09:24:38;2.30;99.90
39815;DHT22;25495;45.948;4.568;2022-12-07T09:27:05;2.30;99.90
39815;DHT22;25495;45.948;4.568;2022-12-07T09:29:30;2.30;99.90
39815;DHT22;25495;45.948;4.568;2022-12-07T09:31:56;2.20;99.90
39815;DHT22;25495;45.948;4.568;2022-12-07T09:34:22;2.20;99.90
39815;DHT22;25495;45.948;4.568;2022-12-07T09:36:48;2.30;99.90
39815;DHT22;25495;45.948;4.568;2022-12-07T09:39:14;2.40;99.90
39815;DHT22;25495;45.948;4.568;2022-12-07T09:41:42;2.40;99.90
39815;DHT22;25495;45.948;4.568;2022-12-07T09:44:14;2.40;99.90
39815;DHT22;25495;45.948;4.568;2022-12-07T09:46:42;2.40;99.90
39815;DHT22;25495;45.948;4.568;2022-12-07T09:49:30;2.50;99.90
39815;DHT22;25495;45.948;4.568;2022-12-07T09:54:36;2.30;99.90
39815;DHT22;25495;45.948;4.568;2022-12-07T09:57:07;2.30;99.90
39815;DHT22;25495;45.948;4.568;2022-12-07T09:59:34;2.30;99.90
39815;DHT22;25495;45.948;4.568;2022-12-07T10:02:25;2.30;99.90
39815;DHT22;25495;45.948;4.568;2022-12-07T10:04:51;2.40;99.90
39815;DHT22;25495;45.948;4.568;2022-12-07T10:07:17;2.50;99.90
39815;DHT22;25495;45.948;4.568;2022-12-07T10:09:42;2.50;99.90
39815;DHT22;25495;45.948;4.568;2022-12-07T10:12:14;2.50;99.90
39815;DHT22;25495;45.948;4.568;2022-12-07T10:15:09;2.50;99.90
39815;DHT22;25495;45.948;4.568;2022-12-07T10:17:40;2.60;99.90
39815;DHT22;25495;45.948;4.568;2022-12-07T10:25:38;2.50;99.90
39815;DHT22;25495;45.948;4.568;2022-12-07T10:28:13;2.50;99.90
39815;DHT22;25495;45.948;4.568;2022-12-07T10:30:59;2.50;99.90
39815;DHT22;25495;45.948;4.568;2022-12-07T10:33:50;2.60;99.90
39815;DHT22;25495;45.948;4.568;2022-12-07T10:36:26;2.70;99.90
39815;DHT22;25495;45.948;4.568;2022-12-07T10:39:11;2.70;99.90
39815;DHT22;25495;45.948;4.568;2022-12-07T10:44:26;2.90;99.90
39815;DHT22;25495;45.948;4.568;2022-12-07T11:08:52;3.10;99.90
39815;DHT22;25495;45.948;4.568;2022-12-07T11:11:45;3.10;99.90
39815;DHT22;25495;45.948;4.568;2022-12-07T11:14:25;3.10;99.90
39815;DHT22;25495;45.948;4.568;2022-12-07T11:25:35;2.90;99.90
39815;DHT22;25495;45.948;4.568;2022-12-07T11:38:57;2.80;99.90
39815;DHT22;25495;45.948;4.568;2022-12-07T11:41:35;2.70;99.90
39815;DHT22;25495;45.948;4.568;2022-12-07T11:44:06;2.70;99.90
39815;DHT22;25495;45.948;4.568;2022-12-07T11:49:43;2.80;99.90
39815;DHT22;25495;45.948;4.568;2022-12-07T11:58:31;2.80;99.90
39815;DHT22;25495;45.948;4.568;2022-12-07T12:06:41;2.80;99.90
39815;DHT22;25495;45.948;4.568;2022-12-07T12:14:54;2.70;99.90
39815;DHT22;25495;45.948;4.568;2022-12-07T12:25:49;2.80;99.90
39815;DHT22;25495;45.948;4.568;2022-12-07T12:28:29;2.80;99.90
39815;DHT22;25495;45.948;4.568;2022-12-07T12:31:15;2.80;99.90
39815;DHT22;25495;45.948;4.568;2022-12-07T12:33:58;2.70;99.90
39815;DHT22;25495;45.948;4.568;2022-12-07T12:47:04;2.80;99.90
39815;DHT22;25495;45.948;4.568;2022-12-07T12:53:05;2.80;99.90
39815;DHT22;25495;45.948;4.568;2022-12-07T12:56:01;2.80;99.90
39815;DHT22;25495;45.948;4.568;2022-12-07T12:58:38;2.80;99.90
39815;DHT22;25495;45.948;4.568;2022-12-07T13:01:33;2.70;99.90
39815;DHT22;25495;45.948;4.568;2022-12-07T13:04:57;2.80;99.90
39815;DHT22;25495;45.948;4.568;2022-12-07T13:07:04;2.70;99.90
39815;DHT22;25495;45.948;4.568;2022-12-07T13:09:34;2.80;99.90
39815;DHT22;25495;45.948;4.568;2022-12-07T13:12:13;2.70;99.90
39815;DHT22;25495;45.948;4.568;2022-12-07T13:17:58;2.70;99.90
39815;DHT22;25495;45.948;4.568;2022-12-07T13:20:04;2.70;99.90
39815;DHT22;25495;45.948;4.568;2022-12-07T13:22:37;2.60;99.90
39815;DHT22;25495;45.948;4.568;2022-12-07T13:27:48;2.60;99.90
39815;DHT22;25495;45.948;4.568;2022-12-07T13:30:19;2.70;99.90
39815;DHT22;25495;45.948;4.568;2022-12-07T13:32:57;2.60;99.90
39815;DHT22;25495;45.948;4.568;2022-12-07T13:35:41;2.70;99.90
39815;DHT22;25495;45.948;4.568;2022-12-07T13:41:03;2.80;99.90
39815;DHT22;25495;45.948;4.568;2022-12-07T13:43:30;2.80;99.90
39815;DHT22;25495;45.948;4.568;2022-12-07T13:45:58;2.70;99.90
39815;DHT22;25495;45.948;4.568;2022-12-07T13:48:35;2.80;99.90
39815;DHT22;25495;45.948;4.568;2022-12-07T13:51:03;2.70;99.90
39815;DHT22;25495;45.948;4.568;2022-12-07T13:53:30;2.70;99.90
39815;DHT22;25495;45.948;4.568;2022-12-07T13:56:00;2.60;99.90
39815;DHT22;25495;45.948;4.568;2022-12-07T13:58:29;2.60;99.90
39815;DHT22;25495;45.948;4.568;2022-12-07T14:01:00;2.70;99.90
39815;DHT22;25495;45.948;4.568;2022-12-07T14:03:31;2.60;99.90
39815;DHT22;25495;45.948;4.568;2022-12-07T14:06:17;2.70;99.90
39815;DHT22;25495;45.948;4.568;2022-12-07T14:08:44;2.70;99.90
39815;DHT22;25495;45.948;4.568;2022-12-07T14:11:17;2.60;99.90
39815;DHT22;25495;45.948;4.568;2022-12-07T14:13:56;2.70;99.90
39815;DHT22;25495;45.948;4.568;2022-12-07T14:16:30;2.60;99.90
39815;DHT22;25495;45.948;4.568;2022-12-07T14:19:00;2.70;99.90
39815;DHT22;25495;45.948;4.568;2022-12-07T14:21:31;2.70;99.90
39815;DHT22;25495;45.948;4.568;2022-12-07T14:24:16;2.90;99.90
39815;DHT22;25495;45.948;4.568;2022-12-07T14:26:45;2.70;99.90
39815;DHT22;25495;45.948;4.568;2022-12-07T14:31:54;2.70;99.90
39815;DHT22;25495;45.948;4.568;2022-12-07T14:34:21;2.70;99.90
39815;DHT22;25495;45.948;4.568;2022-12-07T14:36:50;2.70;99.90
39815;DHT22;25495;45.948;4.568;2022-12-07T14:39:17;2.70;99.90
39815;DHT22;25495;45.948;4.568;2022-12-07T14:41:43;2.70;99.90
39815;DHT22;25495;45.948;4.568;2022-12-07T14:44:21;2.70;99.90
39815;DHT22;25495;45.948;4.568;2022-12-07T14:46:49;2.70;99.90
39815;DHT22;25495;45.948;4.568;2022-12-07T14:49:16;2.70;99.90
39815;DHT22;25495;45.948;4.568;2022-12-07T14:51:43;2.70;99.90
39815;DHT22;25495;45.948;4.568;2022-12-07T14:54:17;2.80;99.90
39815;DHT22;25495;45.948;4.568;2022-12-07T14:56:44;2.90;99.90
39815;DHT22;25495;45.948;4.568;2022-12-07T14:59:12;2.90;99.90
39815;DHT22;25495;45.948;4.568;2022-12-07T15:01:38;2.90;99.90
39815;DHT22;25495;45.948;4.568;2022-12-07T15:04:04;2.90;99.90
39815;DHT22;25495;45.948;4.568;2022-12-07T15:06:30;2.80;99.90
39815;DHT22;25495;45.948;4.568;2022-12-07T15:08:57;2.80;99.90
39815;DHT22;25495;45.948;4.568;2022-12-07T15:11:24;2.80;99.90
39815;DHT22;25495;45.948;4.568;2022-12-07T15:13:51;2.80;99.90
39815;DHT22;25495;45.948;4.568;2022-12-07T15:16:39;2.80;99.90
39815;DHT22;25495;45.948;4.568;2022-12-07T15:19:19;2.70;99.90
39815;DHT22;25495;45.948;4.568;2022-12-07T15:21:48;2.80;99.90
39815;DHT22;25495;45.948;4.568;2022-12-07T15:24:15;2.80;99.90
39815;DHT22;25495;45.948;4.568;2022-12-07T15:26:41;2.80;99.90
39815;DHT22;25495;45.948;4.568;2022-12-07T15:29:09;2.80;99.90
39815;DHT22;25495;45.948;4.568;2022-12-07T15:31:36;2.80;99.90
39815;DHT22;25495;45.948;4.568;2022-12-07T15:34:03;2.80;99.90
39815;DHT22;25495;45.948;4.568;2022-12-07T15:36:31;2.70;99.90
39815;DHT22;25495;45.948;4.568;2022-12-07T15:38:57;2.80;99.90
39815;DHT22;25495;45.948;4.568;2022-12-07T15:41:24;2.70;99.90
39815;DHT22;25495;45.948;4.568;2022-12-07T15:43:50;2.70;99.90
39815;DHT22;25495;45.948;4.568;2022-12-07T15:46:37;2.70;99.90
39815;DHT22;25495;45.948;4.568;2022-12-07T15:49:07;2.80;99.90
39815;DHT22;25495;45.948;4.568;2022-12-07T15:51:35;2.80;99.90
39815;DHT22;25495;45.948;4.568;2022-12-07T15:54:01;2.70;99.90
39815;DHT22;25495;45.948;4.568;2022-12-07T15:56:27;2.80;99.90
39815;DHT22;25495;45.948;4.568;2022-12-07T15:58:53;2.80;99.90
39815;DHT22;25495;45.948;4.568;2022-12-07T16:01:21;2.70;99.90
39815;DHT22;25495;45.948;4.568;2022-12-07T16:03:47;2.70;99.90
39815;DHT22;25495;45.948;4.568;2022-12-07T16:06:17;2.70;99.90
39815;DHT22;25495;45.948;4.568;2022-12-07T16:08:43;2.80;99.90
39815;DHT22;25495;45.948;4.568;2022-12-07T16:11:09;2.70;99.90
39815;DHT22;25495;45.948;4.568;2022-12-07T16:13:35;2.80;99.90
39815;DHT22;25495;45.948;4.568;2022-12-07T16:16:06;2.80;99.90
39815;DHT22;25495;45.948;4.568;2022-12-07T16:18:32;2.70;99.90
39815;DHT22;25495;45.948;4.568;2022-12-07T16:20:58;3.10;99.90
39815;DHT22;25495;45.948;4.568;2022-12-07T16:23:24;2.80;99.90
39815;DHT22;25495;45.948;4.568;2022-12-07T16:25:50;2.80;99.90
39815;DHT22;25495;45.948;4.568;2022-12-07T16:28:16;2.70;99.90
39815;DHT22;25495;45.948;4.568;2022-12-07T16:30:41;2.70;99.90
39815;DHT22;25495;45.948;4.568;2022-12-07T16:33:07;2.70;99.90
39815;DHT22;25495;45.948;4.568;2022-12-07T16:35:33;2.70;99.90
39815;DHT22;25495;45.948;4.568;2022-12-07T16:37:59;2.70;99.90
39815;DHT22;25495;45.948;4.568;2022-12-07T16:40:24;2.70;99.90
39815;DHT22;25495;45.948;4.568;2022-12-07T16:42:50;4.00;99.90
39815;DHT22;25495;45.948;4.568;2022-12-07T16:45:16;4.10;99.90
39815;DHT22;25495;45.948;4.568;2022-12-07T16:47:42;3.50;99.90
39815;DHT22;25495;45.948;4.568;2022-12-07T16:50:07;3.10;99.90
39815;DHT22;25495;45.948;4.568;2022-12-07T16:52:34;2.90;99.90
39815;DHT22;25495;45.948;4.568;2022-12-07T16:54:59;2.70;99.90
39815;DHT22;25495;45.948;4.568;2022-12-07T16:57:25;2.70;99.90
39815;DHT22;25495;45.948;4.568;2022-12-07T16:59:52;2.70;99.90
39815;DHT22;25495;45.948;4.568;2022-12-07T17:02:18;2.60;99.90
39815;DHT22;25495;45.948;4.568;2022-12-07T17:04:44;2.60;99.90
39815;DHT22;25495;45.948;4.568;2022-12-07T17:07:10;2.60;99.90
39815;DHT22;25495;45.948;4.568;2022-12-07T17:09:36;2.60;99.90
39815;DHT22;25495;45.948;4.568;2022-12-07T17:12:04;2.70;99.90
39815;DHT22;25495;45.948;4.568;2022-12-07T17:14:31;2.70;99.90
39815;DHT22;25495;45.948;4.568;2022-12-07T17:17:15;2.70;99.90
39815;DHT22;25495;45.948;4.568;2022-12-07T17:19:41;2.70;99.90
39815;DHT22;25495;45.948;4.568;2022-12-07T17:22:07;2.70;99.90
39815;DHT22;25495;45.948;4.568;2022-12-07T17:24:33;2.70;99.90
39815;DHT22;25495;45.948;4.568;2022-12-07T17:26:59;2.80;99.90
39815;DHT22;25495;45.948;4.568;2022-12-07T17:29:25;2.80;99.90
39815;DHT22;25495;45.948;4.568;2022-12-07T17:31:51;2.80;99.90
39815;DHT22;25495;45.948;4.568;2022-12-07T17:34:16;2.70;99.90
39815;DHT22;25495;45.948;4.568;2022-12-07T17:36:42;2.80;99.90
39815;DHT22;25495;45.948;4.568;2022-12-07T17:39:09;2.80;99.90
39815;DHT22;25495;45.948;4.568;2022-12-07T17:41:37;2.70;99.90
39815;DHT22;25495;45.948;4.568;2022-12-07T17:44:21;2.80;99.90
39815;DHT22;25495;45.948;4.568;2022-12-07T17:46:49;2.80;99.90
39815;DHT22;25495;45.948;4.568;2022-12-07T17:49:20;2.70;99.90
39815;DHT22;25495;45.948;4.568;2022-12-07T17:51:46;2.70;99.90
39815;DHT22;25495;45.948;4.568;2022-12-07T17:54:30;2.80;99.90
39815;DHT22;25495;45.948;4.568;2022-12-07T17:56:56;2.70;99.90
39815;DHT22;25495;45.948;4.568;2022-12-07T17:59:22;2.70;99.90
39815;DHT22;25495;45.948;4.568;2022-12-07T18:01:48;2.80;99.90
39815;DHT22;25495;45.948;4.568;2022-12-07T18:04:14;2.70;99.90
39815;DHT22;25495;45.948;4.568;2022-12-07T18:06:40;2.70;99.90
39815;DHT22;25495;45.948;4.568;2022-12-07T18:09:07;2.70;99.90
39815;DHT22;25495;45.948;4.568;2022-12-07T18:11:33;2.70;99.90
39815;DHT22;25495;45.948;4.568;2022-12-07T18:13:59;2.70;99.90